Time;durP1;ratioP1;P1;durP2;ratioP2;P2;SDS_P1;SDS_P2;PMS_P1;PMS_P2;Temp;Humidity;BMP_temperature;BMP_pressure;BME280_temperature;BME280_humidity;BME280_pressure;Samples;Min_cycle;Max_cycle;Signal;HPM_P1;HPM_P2
2022/01/13 00:01:03;;;;;;;13.07;9.87;;;;;;;0.34;63.80;101061.47;5073753;28;20198;-58
2022/01/13 00:03:31;;;;;;;12.50;9.90;;;;;;;0.67;64.98;101116.41;5073909;28;20192;-59
2022/01/13 00:05:57;;;;;;;14.63;10.43;;;;;;;0.65;65.67;101122.09;5073907;28;20196;-59
2022/01/13 00:08:26;;;;;;;11.70;9.97;;;;;;;0.56;65.04;101127.28;5073738;28;20188;-59
2022/01/13 00:10:52;;;;;;;12.83;9.07;;;;;;;0.56;65.62;101128.19;5073705;28;20206;-59
2022/01/13 00:13:24;;;;;;;13.70;9.10;;;;;;;0.55;65.57;101125.50;5073279;28;20206;-59
2022/01/13 00:16:12;;;;;;;12.30;9.27;;;;;;;0.54;66.11;101123.78;5073531;28;20191;-58
2022/01/13 00:18:40;;;;;;;13.37;9.00;;;;;;;0.47;66.87;101140.06;5073360;28;20690;-59
2022/01/13 00:21:17;;;;;;;11.00;8.93;;;;;;;0.50;66.03;101131.84;5073737;28;20978;-57
2022/01/13 00:23:47;;;;;;;11.13;8.13;;;;;;;0.45;65.71;101134.00;5073298;28;20642;-57
2022/01/13 00:26:20;;;;;;;12.30;8.50;;;;;;;0.42;66.48;101128.69;5073009;28;20198;-57
2022/01/13 00:28:49;;;;;;;12.23;8.60;;;;;;;0.29;66.61;101135.16;5072141;28;20311;-57
2022/01/13 00:31:19;;;;;;;13.13;8.77;;;;;;;0.26;66.85;101137.44;5072181;28;20227;-57
2022/01/13 00:33:47;;;;;;;12.47;8.63;;;;;;;0.22;66.91;101145.53;5071920;28;20650;-57
2022/01/13 00:36:14;;;;;;;14.17;9.07;;;;;;;0.16;67.29;101152.59;5072070;28;20203;-58
2022/01/13 00:38:41;;;;;;;11.33;8.73;;;;;;;0.12;67.71;101146.38;5067416;28;20223;-58
2022/01/13 00:41:10;;;;;;;11.63;9.03;;;;;;;0.03;68.27;101150.66;5051725;28;20192;-57
2022/01/13 00:43:40;;;;;;;14.13;9.63;;;;;;;-0.05;68.80;101160.13;5051673;28;20318;-57
2022/01/13 00:46:08;;;;;;;13.57;9.03;;;;;;;-0.34;69.97;101145.81;5051360;28;20591;-57
2022/01/13 00:48:35;;;;;;;12.60;9.47;;;;;;;-0.16;70.20;101177.66;5051831;28;20766;-57
2022/01/13 00:51:02;;;;;;;15.73;9.37;;;;;;;-0.17;70.76;101175.91;5051591;28;20656;-58
2022/01/13 00:53:29;;;;;;;12.80;8.93;;;;;;;-0.23;71.77;101182.97;5051604;28;20721;-57
2022/01/13 00:56:01;;;;;;;15.07;9.90;;;;;;;-0.24;72.84;101176.13;5051246;28;20192;-57
2022/01/13 00:58:32;;;;;;;17.00;9.57;;;;;;;-0.26;73.78;101181.06;5051543;28;20224;-57
2022/01/13 01:01:01;;;;;;;13.53;9.70;;;;;;;-0.33;74.71;101173.69;5051519;28;20207;-57
2022/01/13 01:03:29;;;;;;;14.33;9.60;;;;;;;-0.42;74.77;101179.59;5051866;28;20663;-57
2022/01/13 01:05:56;;;;;;;14.97;10.83;;;;;;;-0.43;74.93;101181.25;5051535;28;20192;-57
2022/01/13 01:08:24;;;;;;;14.60;10.00;;;;;;;-0.45;75.04;101181.88;5051638;28;20224;-57
2022/01/13 01:10:53;;;;;;;15.97;10.40;;;;;;;-0.51;75.75;101178.81;5051482;28;20199;-57
2022/01/13 01:13:25;;;;;;;18.67;11.60;;;;;;;-0.51;76.47;101181.34;5051373;28;20192;-57
2022/01/13 01:15:56;;;;;;;14.43;9.97;;;;;;;-0.52;76.76;101182.09;5051428;28;20647;-57
2022/01/13 01:18:32;;;;;;;15.90;10.47;;;;;;;-0.54;76.33;101186.09;5050983;28;20730;-57
2022/01/13 01:21:30;;;;;;;13.17;9.67;;;;;;;-0.50;75.62;101183.13;5051728;28;20196;-57
2022/01/13 01:24:14;;;;;;;13.73;9.43;;;;;;;-0.56;75.83;101190.16;5051062;28;20191;-57
2022/01/13 01:26:44;;;;;;;16.25;11.52;;;;;;;-0.57;75.51;101184.22;5050402;28;20439;-57
2022/01/13 01:29:20;;;;;;;19.70;10.30;;;;;;;-0.48;75.16;101190.06;5004398;28;1355057;-58
2022/01/13 01:31:51;;;;;;;13.50;9.40;;;;;;;-0.45;75.14;101181.88;5051910;28;20662;-58
2022/01/13 01:34:33;;;;;;;14.43;10.03;;;;;;;-0.39;75.21;101200.97;5051787;28;20627;-57
2022/01/13 01:37:01;;;;;;;15.23;10.83;;;;;;;-0.40;74.56;101208.38;5051806;28;20291;-57
2022/01/13 01:39:27;;;;;;;14.03;9.83;;;;;;;-0.41;75.90;101199.94;5051780;28;20667;-57
2022/01/13 01:41:56;;;;;;;12.53;9.40;;;;;;;-0.38;75.66;101204.34;5051964;28;20192;-57
2022/01/13 01:44:28;;;;;;;17.90;10.87;;;;;;;-0.32;75.43;101212.47;5051638;28;20556;-57
2022/01/13 01:46:58;;;;;;;14.07;10.40;;;;;;;-0.30;75.37;101208.44;5051691;28;20270;-57
2022/01/13 01:49:26;;;;;;;15.97;10.20;;;;;;;-0.31;75.58;101214.25;5051599;28;20196;-57
2022/01/13 01:51:55;;;;;;;16.30;10.53;;;;;;;-0.37;75.72;101204.50;5051405;28;20193;-57
2022/01/13 01:54:22;;;;;;;14.33;9.43;;;;;;;-0.32;76.01;101203.25;5051564;28;20663;-57
2022/01/13 01:56:49;;;;;;;14.37;10.10;;;;;;;-0.25;75.70;101200.47;5051381;28;20198;-57
2022/01/13 01:59:20;;;;;;;17.73;10.70;;;;;;;-0.21;75.98;101196.59;5050557;28;20216;-57
2022/01/13 02:01:49;;;;;;;17.10;11.27;;;;;;;-0.23;75.59;101203.16;5051479;28;20686;-57
2022/01/13 02:04:19;;;;;;;15.23;10.47;;;;;;;-0.21;74.97;101194.97;5051271;28;20246;-58
2022/01/13 02:06:46;;;;;;;15.83;9.83;;;;;;;-0.39;74.53;101183.28;5051161;28;20727;-58
2022/01/13 02:09:16;;;;;;;16.90;10.40;;;;;;;-0.41;74.12;101194.88;5051242;28;20682;-58
2022/01/13 02:11:44;;;;;;;16.27;10.87;;;;;;;-0.54;74.71;101186.09;5051671;28;20193;-59
2022/01/13 02:14:31;;;;;;;17.10;10.60;;;;;;;-0.57;74.92;101191.78;5051373;28;20647;-59
2022/01/13 02:17:02;;;;;;;12.93;9.20;;;;;;;-0.67;75.88;101191.75;5051385;28;20200;-58
2022/01/13 02:19:31;;;;;;;16.67;10.47;;;;;;;-0.79;75.92;101199.13;5051287;28;20219;-58
2022/01/13 02:22:00;;;;;;;15.90;11.10;;;;;;;-0.80;75.86;101191.44;5050925;28;20282;-59
2022/01/13 02:24:27;;;;;;;17.47;10.87;;;;;;;-0.94;76.01;101192.75;5050824;28;20690;-59
2022/01/13 02:26:54;;;;;;;14.87;10.63;;;;;;;-0.95;76.64;101206.09;5050955;28;20197;-57
2022/01/13 02:29:21;;;;;;;14.47;10.43;;;;;;;-1.02;77.40;101197.84;5065175;28;20302;-58
2022/01/13 02:31:48;;;;;;;15.02;10.65;;;;;;;-1.05;77.62;101195.06;5071014;28;20350;-58
2022/01/13 02:34:15;;;;;;;16.90;10.87;;;;;;;-1.04;77.63;101175.00;5070757;28;20207;-59
2022/01/13 02:36:44;;;;;;;15.63;10.40;;;;;;;-1.03;77.48;101179.31;5070806;28;20281;-58
2022/01/13 02:39:12;;;;;;;14.57;11.03;;;;;;;-1.05;77.60;101188.38;5068999;28;20219;-58
2022/01/13 02:41:39;;;;;;;17.20;10.63;;;;;;;-1.09;77.48;101177.88;5061809;28;20198;-58
2022/01/13 02:44:14;;;;;;;15.90;10.90;;;;;;;-1.06;77.94;101175.63;5067417;28;20282;-57
2022/01/13 02:49:25;;;;;;;18.03;11.57;;;;;;;-0.99;78.54;101178.81;5059477;28;20284;-59
2022/01/13 02:51:54;;;;;;;18.43;11.33;;;;;;;-1.06;78.14;101171.47;5070082;28;20215;-59
2022/01/13 02:54:23;;;;;;;16.13;11.40;;;;;;;-1.08;77.39;101182.19;5078314;28;20262;-59
2022/01/13 02:56:50;;;;;;;15.10;10.33;;;;;;;-1.15;77.38;101173.16;5075620;28;20192;-58
2022/01/13 02:59:17;;;;;;;18.80;10.63;;;;;;;-1.13;77.22;101173.31;5069945;28;20247;-57
2022/01/13 03:01:43;;;;;;;16.30;9.87;;;;;;;-1.11;76.86;101172.72;5070125;28;20191;-57
2022/01/13 03:04:10;;;;;;;17.20;10.87;;;;;;;-1.12;77.19;101173.44;5067554;28;20187;-58
2022/01/13 03:06:40;;;;;;;17.57;10.57;;;;;;;-1.36;77.16;101141.91;5070238;28;20191;-58
2022/01/13 03:09:10;;;;;;;15.77;10.27;;;;;;;-1.12;76.92;101172.56;5070072;28;20989;-57
2022/01/13 03:11:38;;;;;;;18.37;9.67;;;;;;;-1.15;77.96;101174.84;5069677;28;20184;-57
2022/01/13 03:14:08;;;;;;;16.10;10.77;;;;;;;-1.09;77.31;101162.75;5069988;28;20686;-57
2022/01/13 03:16:35;;;;;;;18.13;11.00;;;;;;;-1.08;77.05;101160.38;5070402;28;20286;-58
2022/01/13 03:19:02;;;;;;;15.60;10.43;;;;;;;-1.04;77.11;101167.44;5070054;28;20219;-58
2022/01/13 03:21:29;;;;;;;15.43;10.13;;;;;;;-1.04;76.46;101167.44;5070034;28;20274;-57
2022/01/13 03:23:56;;;;;;;17.73;11.40;;;;;;;-1.01;77.01;101160.16;5070465;28;20278;-58
2022/01/13 03:26:24;;;;;;;13.30;10.30;;;;;;;-0.99;76.94;101158.63;5070045;28;20282;-58
2022/01/13 03:29:03;;;;;;;18.03;11.00;;;;;;;-1.01;75.89;101155.09;5070020;28;20223;-58
2022/01/13 03:31:30;;;;;;;15.30;10.23;;;;;;;-0.97;75.86;101154.63;5070168;28;20589;-57
2022/01/13 03:33:57;;;;;;;15.30;10.80;;;;;;;-1.00;76.36;101166.09;5070180;28;20202;-58
2022/01/13 03:36:24;;;;;;;15.03;10.63;;;;;;;-1.06;75.81;101163.91;5069985;28;20680;-58
2022/01/13 03:38:51;;;;;;;17.10;10.97;;;;;;;-1.09;75.41;101171.19;5070272;28;20219;-58
2022/01/13 03:41:20;;;;;;;17.70;11.20;;;;;;;-1.12;75.28;101170.03;5070360;28;20194;-58
2022/01/13 03:43:51;;;;;;;15.63;10.73;;;;;;;-1.09;76.11;101177.88;5070129;28;20252;-58
2022/01/13 03:46:19;;;;;;;19.70;12.00;;;;;;;-1.42;76.94;101118.66;5069767;28;20198;-58
2022/01/13 03:48:46;;;;;;;20.70;13.10;;;;;;;-1.26;76.87;101147.00;5070094;28;20192;-58
2022/01/13 03:51:13;;;;;;;18.23;12.27;;;;;;;-1.06;76.75;101168.06;5070076;28;20208;-56
2022/01/13 03:54:24;;;;;;;21.37;13.67;;;;;;;-1.06;76.04;101161.38;5069747;28;20764;-58
2022/01/13 03:57:47;;;;;;;21.67;13.60;;;;;;;-1.12;74.70;101165.00;5021105;28;20210;-58
2022/01/13 04:01:07;;;;;;;25.70;14.37;;;;;;;-1.08;74.98;101162.88;5027872;28;20204;-58
2022/01/13 04:03:36;;;;;;;31.47;18.53;;;;;;;-1.12;75.45;101165.00;4988537;28;20207;-58
2022/01/13 04:06:08;;;;;;;22.27;14.70;;;;;;;-1.08;75.07;101170.47;4988480;28;20195;-59
2022/01/13 04:08:35;;;;;;;21.60;15.10;;;;;;;-1.01;75.57;101166.81;5038358;28;20441;-59
2022/01/13 04:11:17;;;;;;;17.07;11.87;;;;;;;-0.98;74.49;101178.06;5069852;28;20192;-58
2022/01/13 04:13:49;;;;;;;19.70;12.20;;;;;;;-1.04;73.90;101179.19;5069645;28;20605;-58
2022/01/13 04:16:18;;;;;;;18.57;12.60;;;;;;;-1.08;74.60;101187.22;5069938;28;20632;-58
2022/01/13 04:18:48;;;;;;;19.83;12.77;;;;;;;-1.14;73.95;101186.66;5069685;28;20223;-58
2022/01/13 04:21:17;;;;;;;20.60;13.23;;;;;;;-1.15;73.41;101195.88;5070163;28;20735;-58
2022/01/13 04:23:45;;;;;;;20.43;12.50;;;;;;;-1.18;74.22;101189.69;5073242;28;20203;-58
2022/01/13 04:26:15;;;;;;;21.67;13.33;;;;;;;-1.17;74.23;101202.41;5073346;28;20543;-58
2022/01/13 04:28:42;;;;;;;20.57;14.00;;;;;;;-1.16;73.85;101204.19;5073003;28;20223;-57
2022/01/13 04:31:09;;;;;;;21.10;13.53;;;;;;;-1.22;73.77;101206.16;5073040;28;20742;-57
2022/01/13 04:33:38;;;;;;;18.97;12.33;;;;;;;-1.25;73.78;101200.84;5073080;28;20313;-57
2022/01/13 04:36:09;;;;;;;20.57;13.07;;;;;;;-1.25;73.89;101211.81;5072648;28;20191;-58
2022/01/13 04:38:36;;;;;;;21.30;13.37;;;;;;;-1.24;73.66;101216.09;5072513;28;20289;-58
2022/01/13 04:41:04;;;;;;;25.53;14.77;;;;;;;-1.24;73.81;101206.00;5072849;28;20187;-59
2022/01/13 04:43:32;;;;;;;25.20;14.77;;;;;;;-1.28;73.64;101213.19;5072464;28;20269;-58
2022/01/13 04:45:59;;;;;;;25.60;14.53;;;;;;;-1.26;74.05;101202.47;5072463;28;20237;-58
2022/01/13 04:48:26;;;;;;;23.60;14.63;;;;;;;-1.34;74.01;101212.63;5072467;28;20294;-58
2022/01/13 04:50:53;;;;;;;32.83;14.07;;;;;;;-1.28;74.57;101210.66;5072746;28;20222;-58
2022/01/13 04:53:22;;;;;;;20.90;12.80;;;;;;;-1.26;73.88;101214.19;5073076;28;20195;-59
2022/01/13 04:55:57;;;;;;;23.23;14.47;;;;;;;-1.27;72.85;101210.81;5072750;28;20199;-58
2022/01/13 04:58:24;;;;;;;22.17;13.17;;;;;;;-1.29;73.04;101209.75;5072322;28;20272;-58
2022/01/13 05:00:50;;;;;;;18.33;12.17;;;;;;;-1.21;73.09;101218.03;5072338;28;20198;-59
2022/01/13 05:03:18;;;;;;;24.20;14.60;;;;;;;-1.27;72.86;101225.03;5072645;28;20192;-59
2022/01/13 05:05:44;;;;;;;20.37;13.07;;;;;;;-1.24;72.84;101227.84;5072064;28;20195;-59
2022/01/13 05:08:11;;;;;;;21.40;12.80;;;;;;;-1.28;72.84;101226.66;5072368;28;20196;-59
2022/01/13 05:10:40;;;;;;;22.63;14.53;;;;;;;-1.27;73.35;101230.09;5072362;28;20192;-59
2022/01/13 05:13:09;;;;;;;20.90;14.20;;;;;;;-1.21;73.98;101235.69;5072209;28;20200;-59
2022/01/13 05:15:39;;;;;;;26.60;17.35;;;;;;;-1.24;74.08;101210.19;5071727;28;20557;-59
2022/01/13 05:18:15;;;;;;;26.00;16.23;;;;;;;-1.10;73.53;101221.50;5072125;28;20273;-59
2022/01/13 05:20:47;;;;;;;28.13;14.87;;;;;;;-1.13;74.38;101221.25;5072446;28;20195;-58
2022/01/13 05:23:16;;;;;;;29.27;17.90;;;;;;;-1.09;74.73;101230.84;5071964;28;20188;-58
2022/01/13 05:25:45;;;;;;;23.10;15.63;;;;;;;-1.11;74.35;101237.38;5071813;28;20197;-58
2022/01/13 05:28:12;;;;;;;19.90;14.53;;;;;;;-1.17;75.06;101242.75;5071767;28;20346;-58
2022/01/13 05:30:40;;;;;;;22.90;15.27;;;;;;;-1.24;74.18;101248.00;5071942;28;20202;-58
2022/01/13 05:33:07;;;;;;;21.90;14.93;;;;;;;-1.31;74.72;101249.09;5070765;28;20299;-58
2022/01/13 05:35:36;;;;;;;23.77;14.60;;;;;;;-1.31;74.79;101245.66;5072041;28;20197;-58
2022/01/13 05:38:03;;;;;;;23.80;14.77;;;;;;;-1.39;75.28;101241.56;5072171;28;20192;-58
2022/01/13 05:40:31;;;;;;;21.57;15.43;;;;;;;-1.33;75.90;101249.69;5071706;28;20211;-58
2022/01/13 05:42:59;;;;;;;21.87;15.60;;;;;;;-1.33;76.30;101244.66;5071491;28;20191;-57
2022/01/13 05:45:29;;;;;;;24.00;15.77;;;;;;;-1.35;75.31;101247.06;5071858;28;20198;-58
2022/01/13 05:47:58;;;;;;;21.30;15.77;;;;;;;-1.30;76.00;101253.38;5071762;28;20270;-57
2022/01/13 05:50:26;;;;;;;21.80;14.17;;;;;;;-1.33;76.10;101254.72;5071568;28;20188;-58
2022/01/13 05:52:53;;;;;;;24.97;14.67;;;;;;;-1.32;75.25;101256.53;5071387;28;20198;-57
2022/01/13 05:55:21;;;;;;;23.33;15.00;;;;;;;-1.30;74.93;101262.59;5071363;28;20188;-58
2022/01/13 05:57:48;;;;;;;23.13;16.57;;;;;;;-1.30;74.79;101262.59;5070516;28;20928;-58
2022/01/13 06:00:19;;;;;;;20.37;14.63;;;;;;;-1.26;74.52;101262.09;5071505;28;20481;-58
2022/01/13 06:02:46;;;;;;;23.23;15.53;;;;;;;-1.25;74.54;101273.97;5070921;28;20199;-57
2022/01/13 06:05:14;;;;;;;21.87;14.60;;;;;;;-1.18;74.70;101275.41;5071209;28;20195;-58
2022/01/13 06:07:41;;;;;;;22.23;14.60;;;;;;;-1.29;74.24;101271.94;5071014;28;20196;-58
2022/01/13 06:10:10;;;;;;;25.60;16.67;;;;;;;-1.25;74.73;101274.84;5070535;28;20441;-57
2022/01/13 06:12:38;;;;;;;22.50;13.60;;;;;;;-1.26;74.19;101272.19;5071214;28;20192;-57
2022/01/13 06:15:06;;;;;;;30.53;18.60;;;;;;;-1.31;74.16;101274.28;5070865;28;20192;-58
2022/01/13 06:17:35;;;;;;;81.17;40.07;;;;;;;-1.47;74.05;101250.97;5071170;28;20195;-58
2022/01/13 06:20:03;;;;;;;89.23;47.70;;;;;;;-1.22;73.67;101286.84;5070432;28;20212;-58
2022/01/13 06:22:30;;;;;;;40.37;25.13;;;;;;;-1.17;73.65;101283.09;5070429;28;20298;-58
2022/01/13 06:24:57;;;;;;;18.37;13.53;;;;;;;-1.54;73.86;101233.50;5071017;28;20284;-58
2022/01/13 06:27:24;;;;;;;20.33;13.80;;;;;;;-1.34;73.50;101289.13;5070572;28;20196;-58
2022/01/13 06:29:51;;;;;;;17.87;12.60;;;;;;;-1.34;73.05;101284.09;5070535;28;20198;-59
2022/01/13 06:32:19;;;;;;;18.30;12.10;;;;;;;-1.26;73.33;101289.81;5070479;28;20290;-57
2022/01/13 06:34:47;;;;;;;19.70;11.77;;;;;;;-1.59;72.81;101238.88;5068858;28;20274;-57
2022/01/13 06:37:14;;;;;;;18.97;12.37;;;;;;;-1.34;72.85;101300.84;5070488;28;20187;-57
2022/01/13 06:39:41;;;;;;;26.20;13.80;;;;;;;-1.58;72.27;101276.81;5070282;28;20220;-57
2022/01/13 06:42:08;;;;;;;27.63;13.77;;;;;;;-1.51;72.46;101306.88;5070259;28;20292;-58
2022/01/13 06:44:36;;;;;;;27.50;15.73;;;;;;;-1.49;72.50;101309.53;5070092;28;20210;-57
2022/01/13 06:47:03;;;;;;;28.77;15.00;;;;;;;-1.37;72.81;101300.56;5070355;28;20195;-57
2022/01/13 06:49:30;;;;;;;27.60;15.30;;;;;;;-1.27;73.16;101305.72;5065655;28;20655;-57
2022/01/13 06:51:58;;;;;;;26.90;14.30;;;;;;;-1.27;72.09;101301.56;5050084;28;20199;-58
2022/01/13 06:54:25;;;;;;;30.73;16.80;;;;;;;-1.18;71.96;101301.50;5050025;28;20196;-57
2022/01/13 06:56:53;;;;;;;34.67;15.07;;;;;;;-1.14;71.97;101307.72;5049749;28;20283;-57
2022/01/13 06:59:20;;;;;;;25.73;14.40;;;;;;;-1.05;72.33;101319.53;5050114;28;20220;-57
2022/01/13 07:01:48;;;;;;;32.53;17.13;;;;;;;-1.03;72.11;101309.56;5049717;28;20193;-58
2022/01/13 07:04:16;;;;;;;33.97;16.77;;;;;;;-0.93;71.87;101310.53;5049847;28;20583;-59
2022/01/13 07:06:44;;;;;;;28.53;15.13;;;;;;;-0.62;71.63;101312.53;5055404;28;20191;-58
2022/01/13 07:09:14;;;;;;;38.53;18.37;;;;;;;0.49;68.96;101318.09;5070301;28;20184;-59
2022/01/13 07:11:42;;;;;;;39.53;18.63;;;;;;;0.91;64.10;101325.84;5070435;28;20199;-57
2022/01/13 07:14:09;;;;;;;35.23;18.33;;;;;;;0.67;63.85;101320.38;5069999;28;20207;-59
2022/01/13 07:16:37;;;;;;;24.13;16.10;;;;;;;0.30;65.26;101314.72;5069945;28;20302;-58
2022/01/13 07:19:05;;;;;;;36.23;15.43;;;;;;;0.14;65.21;101328.47;5069675;28;20219;-58
2022/01/13 07:21:32;;;;;;;21.23;13.57;;;;;;;0.11;66.47;101325.69;5069877;28;20727;-59
2022/01/13 07:23:59;;;;;;;24.43;14.80;;;;;;;0.05;66.79;101335.25;5060327;28;20210;-58
2022/01/13 07:26:27;;;;;;;23.50;14.60;;;;;;;0.00;66.77;101327.28;5067228;28;20195;-58
2022/01/13 07:28:54;;;;;;;23.83;15.10;;;;;;;0.10;66.52;101334.00;5069041;28;20258;-58
2022/01/13 07:31:21;;;;;;;21.70;13.10;;;;;;;0.08;65.79;101338.94;5069623;28;20294;-58
2022/01/13 07:33:48;;;;;;;24.40;15.53;;;;;;;0.08;65.98;101341.47;5069631;28;20195;-58
2022/01/13 07:36:15;;;;;;;24.30;15.63;;;;;;;0.05;66.70;101332.72;5069575;28;20196;-58
2022/01/13 07:38:42;;;;;;;27.80;14.90;;;;;;;0.14;67.32;101331.88;5070028;28;20282;-57
2022/01/13 07:41:09;;;;;;;27.45;15.18;;;;;;;0.22;66.36;101323.31;5069708;28;20515;-58
2022/01/13 07:43:42;;;;;;;18.57;12.50;;;;;;;0.29;66.27;101330.69;5069456;28;20278;-59
2022/01/13 07:46:09;;;;;;;22.70;15.03;;;;;;;0.36;65.52;101330.44;5069994;28;20199;-56
2022/01/13 07:48:35;;;;;;;19.47;11.87;;;;;;;0.48;65.26;101338.19;5069370;28;20207;-57
2022/01/13 07:51:03;;;;;;;15.37;11.30;;;;;;;0.51;63.28;101335.91;5069855;28;20191;-57
2022/01/13 07:53:29;;;;;;;19.37;12.50;;;;;;;0.60;63.30;101345.16;5069607;28;20249;-58
2022/01/13 07:55:56;;;;;;;18.63;12.13;;;;;;;0.71;64.88;101347.72;5069751;28;20738;-58
2022/01/13 07:58:23;;;;;;;17.13;12.03;;;;;;;0.75;62.93;101343.03;5073353;28;20279;-57
2022/01/13 08:00:52;;;;;;;23.03;13.47;;;;;;;0.79;63.33;101346.72;5073313;28;20302;-58
2022/01/13 08:03:19;;;;;;;19.57;13.10;;;;;;;0.86;62.64;101341.41;5073099;28;20226;-58
2022/01/13 08:05:46;;;;;;;19.57;12.07;;;;;;;0.92;63.38;101347.00;5073486;28;20242;-58
2022/01/13 08:08:13;;;;;;;17.43;11.80;;;;;;;0.99;62.63;101360.28;5073152;28;20555;-57
2022/01/13 08:10:40;;;;;;;22.83;13.50;;;;;;;1.03;62.23;101346.25;5072764;28;20667;-58
2022/01/13 08:13:06;;;;;;;17.93;13.87;;;;;;;1.18;62.77;101355.13;5072803;28;20195;-57
2022/01/13 08:15:35;;;;;;;19.73;12.10;;;;;;;1.22;61.50;101358.75;5072529;28;20202;-57
2022/01/13 08:20:48;;;;;;;15.70;11.30;;;;;;;1.28;60.51;101337.38;5071611;28;20215;-57
2022/01/13 08:23:14;;;;;;;23.43;11.47;;;;;;;1.27;60.23;101320.41;5070662;28;20196;-57
2022/01/13 08:25:41;;;;;;;16.70;10.80;;;;;;;1.43;58.72;101328.50;5071717;28;20669;-57
2022/01/13 08:28:10;;;;;;;17.40;10.50;;;;;;;1.38;58.84;101322.16;5070305;28;20306;-57
2022/01/13 08:30:37;;;;;;;17.07;10.53;;;;;;;1.38;58.14;101327.25;5070937;28;20188;-57
2022/01/13 08:33:05;;;;;;;15.27;10.60;;;;;;;1.32;58.20;101316.59;5072275;28;20183;-57
2022/01/13 08:35:32;;;;;;;22.43;10.90;;;;;;;1.35;58.77;101329.50;5071400;28;20188;-58
2022/01/13 08:38:05;;;;;;;17.50;10.83;;;;;;;1.39;58.33;101333.19;5071278;28;20188;-57
2022/01/13 08:40:34;;;;;;;20.80;11.33;;;;;;;1.37;59.29;101329.66;5070400;28;20253;-57
2022/01/13 08:43:02;;;;;;;22.30;10.17;;;;;;;1.52;59.53;101336.84;5071569;28;20217;-56
2022/01/13 08:45:29;;;;;;;14.27;10.43;;;;;;;1.56;58.68;101338.88;5072043;28;20199;-57
2022/01/13 08:47:56;;;;;;;15.33;10.07;;;;;;;1.54;58.52;101335.31;5071377;28;20184;-58
2022/01/13 08:50:24;;;;;;;18.97;10.70;;;;;;;1.52;58.05;101339.38;5071838;28;20192;-57
2022/01/13 08:52:51;;;;;;;21.37;12.10;;;;;;;1.56;58.00;101343.06;5071035;28;21520;-57
2022/01/13 08:55:18;;;;;;;15.37;10.67;;;;;;;1.50;58.14;101312.16;5070158;28;20188;-57
2022/01/13 08:57:46;;;;;;;17.97;10.73;;;;;;;1.74;57.55;101345.41;5062044;28;20712;-58
2022/01/13 09:00:14;;;;;;;17.53;11.00;;;;;;;1.65;56.67;101326.94;5069866;28;20211;-57
2022/01/13 09:02:42;;;;;;;19.10;12.17;;;;;;;1.72;57.55;101339.34;5071815;28;20183;-57
2022/01/13 09:05:11;;;;;;;19.03;12.50;;;;;;;1.87;57.96;101352.34;5072001;28;20286;-57
2022/01/13 09:07:39;;;;;;;32.50;13.87;;;;;;;1.93;57.34;101346.88;5071054;28;20274;-57
2022/01/13 09:10:08;;;;;;;20.07;12.13;;;;;;;1.84;57.56;101341.94;5071641;28;20263;-57
2022/01/13 09:12:35;;;;;;;18.70;12.57;;;;;;;1.75;57.21;101309.19;5071862;28;20187;-57
2022/01/13 09:15:14;;;;;;;21.57;12.40;;;;;;;2.09;57.67;101334.66;5071756;28;20188;-58
2022/01/13 09:17:42;;;;;;;20.90;12.00;;;;;;;1.91;56.90;101335.75;5071648;28;20279;-57
2022/01/13 09:20:09;;;;;;;16.27;12.17;;;;;;;1.93;56.65;101334.19;5069045;28;20736;-58
2022/01/13 09:22:36;;;;;;;16.07;11.07;;;;;;;1.89;55.61;101332.19;5072162;28;20286;-57
2022/01/13 09:25:06;;;;;;;17.43;11.17;;;;;;;1.87;55.72;101337.13;5071571;28;20184;-57
2022/01/13 09:27:33;;;;;;;21.23;12.90;;;;;;;1.91;56.45;101318.00;5071283;28;20278;-57
2022/01/13 09:30:01;;;;;;;21.20;13.37;;;;;;;1.95;56.89;101325.09;5071258;28;20188;-56
2022/01/13 09:32:27;;;;;;;17.77;12.57;;;;;;;2.04;57.42;101325.78;5071821;28;20191;-57
2022/01/13 09:34:54;;;;;;;22.07;13.47;;;;;;;1.97;57.46;101319.38;5071332;28;20190;-57
2022/01/13 09:37:24;;;;;;;18.75;12.48;;;;;;;1.91;57.40;101321.41;5071967;28;20412;-56
2022/01/13 09:39:51;;;;;;;19.33;12.17;;;;;;;2.03;58.03;101329.13;5071352;28;20575;-57
2022/01/13 09:42:20;;;;;;;19.40;12.87;;;;;;;2.18;57.91;101343.00;5071513;28;20192;-57
2022/01/13 09:44:48;;;;;;;22.90;14.23;;;;;;;2.00;58.38;101323.81;5071559;28;20188;-57
2022/01/13 09:47:16;;;;;;;17.93;13.53;;;;;;;1.89;58.58;101277.34;5071450;28;20659;-58
2022/01/13 09:49:44;;;;;;;25.17;13.97;;;;;;;2.17;57.57;101309.13;5071097;28;20275;-58
2022/01/13 09:52:11;;;;;;;25.10;14.30;;;;;;;2.26;58.59;101308.97;5071244;28;20199;-58
2022/01/13 09:54:38;;;;;;;23.00;13.97;;;;;;;2.21;57.72;101303.56;5070601;28;20188;-57
2022/01/13 09:57:05;;;;;;;17.47;13.00;;;;;;;2.34;57.72;101300.28;5069378;28;20188;-57
2022/01/13 09:59:34;;;;;;;21.97;12.87;;;;;;;2.44;57.70;101300.25;5070513;28;20199;-56
2022/01/13 10:02:00;;;;;;;21.30;13.37;;;;;;;2.56;57.20;101296.09;5070557;28;20187;-57
2022/01/13 10:04:44;;;;;;;22.37;12.17;;;;;;;2.46;56.41;101288.56;5068903;28;20195;-58
2022/01/13 10:07:13;;;;;;;27.73;14.47;;;;;;;2.54;57.12;101287.50;5068917;28;20198;-59
2022/01/13 10:09:53;;;;;;;17.07;11.87;;;;;;;2.58;56.41;101278.47;5068806;28;20195;-59
2022/01/13 10:12:24;;;;;;;17.80;12.53;;;;;;;2.54;55.22;101287.50;5069614;28;20195;-59
2022/01/13 10:17:46;;;;;;;22.33;13.45;;;;;;;2.56;56.55;101273.28;5069434;28;20424;-57
2022/01/13 10:20:15;;;;;;;21.80;13.77;;;;;;;2.47;56.07;101264.09;5069752;28;20606;-57
2022/01/13 10:22:43;;;;;;;20.63;12.90;;;;;;;2.52;55.87;101258.59;5070597;28;20203;-56
2022/01/13 10:25:26;;;;;;;22.90;13.43;;;;;;;2.62;55.58;101263.59;5070688;28;20195;-57
2022/01/13 10:27:53;;;;;;;17.23;11.23;;;;;;;2.52;55.16;101253.53;5070511;28;20228;-57
2022/01/13 10:30:25;;;;;;;19.37;11.60;;;;;;;2.49;55.52;101240.63;5070443;28;20191;-57
2022/01/13 10:32:54;;;;;;;18.13;13.00;;;;;;;2.43;55.61;101237.59;5070652;28;20191;-60
2022/01/13 10:35:23;;;;;;;16.43;11.40;;;;;;;2.20;56.49;101176.63;5070690;28;20199;-59
2022/01/13 10:37:56;;;;;;;16.93;11.13;;;;;;;2.55;55.34;101230.94;5070860;28;20229;-59
2022/01/13 10:40:26;;;;;;;16.80;11.40;;;;;;;2.57;55.01;101224.31;5070022;28;20709;-59
2022/01/13 10:43:08;;;;;;;18.77;10.90;;;;;;;2.62;54.21;101215.38;5070008;28;20188;-57
2022/01/13 10:45:39;;;;;;;17.03;11.43;;;;;;;2.67;54.52;101206.47;5069979;28;20713;-57
2022/01/13 10:48:09;;;;;;;17.00;11.27;;;;;;;2.61;53.49;101188.25;5069743;28;20202;-57
2022/01/13 10:50:40;;;;;;;18.13;11.70;;;;;;;2.64;53.91;101188.47;5069959;28;20278;-57
2022/01/13 10:53:08;;;;;;;16.97;11.70;;;;;;;2.81;53.98;101177.91;5070004;28;20187;-57
2022/01/13 10:55:39;;;;;;;14.90;10.60;;;;;;;2.82;52.84;101178.81;5069330;28;20658;-57
2022/01/13 10:58:06;;;;;;;16.40;11.60;;;;;;;2.90;51.53;101170.09;5070122;28;20203;-57
2022/01/13 11:00:35;;;;;;;16.20;11.33;;;;;;;2.90;50.97;101185.31;5069629;28;20226;-56
2022/01/13 11:03:09;;;;;;;18.13;10.67;;;;;;;2.88;50.57;101167.44;5069860;28;20290;-57
2022/01/13 11:05:39;;;;;;;16.90;11.17;;;;;;;3.00;50.84;101169.97;5069770;28;20677;-57
2022/01/13 11:08:08;;;;;;;15.73;10.60;;;;;;;2.98;50.02;101181.69;5069510;28;20188;-57
2022/01/13 11:10:37;;;;;;;21.40;11.48;;;;;;;2.91;49.58;101166.78;5069484;28;20880;-57
2022/01/13 11:13:07;;;;;;;13.20;10.60;;;;;;;2.92;48.92;101163.47;5069798;28;20206;-57
2022/01/13 11:15:38;;;;;;;16.70;11.20;;;;;;;2.97;49.87;101154.53;5069693;28;20673;-57
2022/01/13 11:18:07;;;;;;;17.50;11.50;;;;;;;3.03;50.38;101151.53;5069837;28;20235;-57
2022/01/13 11:20:33;;;;;;;16.63;11.90;;;;;;;3.02;50.07;101145.63;5069582;28;20220;-57
2022/01/13 11:23:01;;;;;;;19.27;12.60;;;;;;;3.01;51.17;101141.28;5069584;28;20196;-57
2022/01/13 11:25:28;;;;;;;21.37;12.73;;;;;;;2.93;50.93;101144.94;5069859;28;20198;-57
2022/01/13 11:27:57;;;;;;;19.83;13.70;;;;;;;2.96;51.25;101146.06;5069439;28;20322;-57
2022/01/13 11:30:28;;;;;;;18.10;12.03;;;;;;;3.02;50.56;101137.09;5070742;28;20217;-57
2022/01/13 11:32:57;;;;;;;22.70;13.03;;;;;;;2.90;50.75;101126.94;5074067;28;20198;-57